Time;durP1;ratioP1;P1;durP2;ratioP2;P2;SDS_P1;SDS_P2;PMS_P1;PMS_P2;Temp;Humidity;BMP_temperature;BMP_pressure;BME280_temperature;BME280_humidity;BME280_pressure;Samples;Min_cycle;Max_cycle;Signal;HPM_P1;HPM_P2
2021/06/02 00:00:51;;;;;;;4.50;3.30;;;23.20;46.90;;;;;;5032337;28;20210;-80
2021/06/02 00:03:23;;;;;;;3.40;2.70;;;23.20;46.90;;;;;;5033278;28;20176;-80
2021/06/02 00:05:52;;;;;;;3.57;3.27;;;23.20;46.90;;;;;;5051008;28;20394;-79
2021/06/02 00:08:19;;;;;;;3.10;2.80;;;23.20;46.90;;;;;;5032267;28;20789;-80
2021/06/02 00:10:44;;;;;;;3.90;3.27;;;23.20;46.90;;;;;;5032189;28;20428;-80
2021/06/02 00:13:12;;;;;;;4.97;3.87;;;23.20;46.90;;;;;;5033264;28;20423;-80
2021/06/02 00:15:37;;;;;;;4.83;3.60;;;23.20;46.90;;;;;;5026180;28;20206;-80
2021/06/02 00:18:04;;;;;;;3.47;3.17;;;23.20;46.90;;;;;;5050416;28;20407;-80
2021/06/02 00:20:30;;;;;;;3.70;3.30;;;23.20;46.90;;;;;;5050548;28;20187;-80
2021/06/02 00:22:56;;;;;;;5.17;3.80;;;23.20;46.90;;;;;;5050224;28;20420;-79
2021/06/02 00:25:22;;;;;;;4.90;3.37;;;23.20;46.90;;;;;;5038028;28;20422;-80
2021/06/02 00:27:51;;;;;;;3.73;3.43;;;23.20;46.90;;;;;;5053220;28;20477;-80
2021/06/02 00:30:18;;;;;;;4.73;3.20;;;23.20;46.90;;;;;;5032591;28;20199;-80
2021/06/02 00:32:44;;;;;;;3.70;3.30;;;23.20;46.90;;;;;;5033035;28;20445;-79
2021/06/02 00:35:11;;;;;;;4.17;3.77;;;23.20;46.90;;;;;;5050598;28;20540;-79
2021/06/02 00:37:39;;;;;;;3.63;3.33;;;23.20;46.90;;;;;;5047819;28;20441;-79
2021/06/02 00:40:08;;;;;;;3.30;3.00;;;23.20;46.90;;;;;;5047054;28;20478;-79
2021/06/02 00:42:34;;;;;;;4.50;3.70;;;23.20;46.90;;;;;;5018547;28;20461;-78
2021/06/02 00:45:00;;;;;;;5.33;3.60;;;23.20;46.90;;;;;;5049425;28;20422;-78
2021/06/02 00:47:26;;;;;;;3.83;3.53;;;23.20;46.90;;;;;;5050144;28;20164;-79
2021/06/02 00:49:52;;;;;;;3.80;3.40;;;23.20;47.00;;;;;;5049596;28;20175;-79
2021/06/02 00:52:26;;;;;;;4.63;3.03;;;23.20;46.90;;;;;;5048392;28;20422;-79
2021/06/02 00:54:52;;;;;;;3.60;2.90;;;23.20;46.90;;;;;;5029472;28;20925;-79
2021/06/02 00:57:19;;;;;;;4.50;3.67;;;23.20;47.00;;;;;;5030110;28;20415;-80
2021/06/02 01:00:07;;;;;;;3.73;3.33;;;23.20;47.00;;;;;;5013460;28;20442;-79
2021/06/02 01:02:35;;;;;;;4.47;3.60;;;23.20;46.90;;;;;;5032770;28;20391;-79
2021/06/02 01:05:01;;;;;;;4.23;3.23;;;23.20;46.90;;;;;;5031957;28;20426;-79
2021/06/02 01:07:27;;;;;;;5.67;3.40;;;23.10;46.90;;;;;;5029332;28;20788;-79
2021/06/02 01:09:56;;;;;;;4.33;3.83;;;23.10;46.80;;;;;;5029433;28;20187;-79
2021/06/02 01:12:24;;;;;;;3.80;3.40;;;23.20;46.90;;;;;;5012906;28;20411;-79
2021/06/02 01:14:51;;;;;;;3.93;3.50;;;23.20;46.90;;;;;;5047717;28;20786;-79
2021/06/02 01:17:23;;;;;;;5.70;4.10;;;23.20;46.90;;;;;;5052360;28;20412;-79
2021/06/02 01:19:49;;;;;;;5.17;3.70;;;23.20;46.90;;;;;;5049269;28;20406;-79
2021/06/02 01:22:16;;;;;;;4.10;3.43;;;23.10;46.90;;;;;;5049498;28;20465;-79
2021/06/02 01:24:42;;;;;;;4.10;3.70;;;23.10;46.90;;;;;;5050255;28;20417;-78
2021/06/02 01:27:10;;;;;;;3.50;3.03;;;23.10;46.90;;;;;;5048377;28;20412;-79
2021/06/02 01:29:38;;;;;;;4.30;3.53;;;23.10;46.90;;;;;;5050911;28;20418;-79
2021/06/02 01:32:42;;;;;;;3.60;3.30;;;23.10;46.90;;;;;;5033730;28;20422;-79
2021/06/02 01:35:48;;;;;;;3.40;3.10;;;23.20;47.00;;;;;;5031050;28;20432;-79
2021/06/02 01:38:43;;;;;;;4.30;3.67;;;23.10;46.90;;;;;;5019760;28;20419;-78
2021/06/02 01:41:19;;;;;;;3.90;3.50;;;23.10;46.90;;;;;;4980345;28;20413;-80
2021/06/02 01:44:23;;;;;;;9.03;3.67;;;23.10;47.00;;;;;;5035208;28;20418;-80
2021/06/02 01:47:03;;;;;;;3.80;3.20;;;23.10;47.00;;;;;;4993925;28;20415;-79
2021/06/02 01:49:35;;;;;;;3.80;3.07;;;23.10;47.00;;;;;;5025058;28;20581;-79
2021/06/02 01:52:25;;;;;;;3.70;3.27;;;23.10;47.00;;;;;;5041708;28;20411;-79
2021/06/02 01:55:22;;;;;;;3.10;2.80;;;23.10;47.00;;;;;;5019785;28;20502;-79
2021/06/02 01:58:26;;;;;;;5.97;3.50;;;23.10;47.00;;;;;;5040744;28;20475;-79
2021/06/02 02:01:16;;;;;;;3.67;3.37;;;23.10;47.00;;;;;;5033489;28;20415;-79
2021/06/02 02:04:16;;;;;;;3.50;3.20;;;23.10;47.00;;;;;;5026894;28;20436;-80
2021/06/02 02:07:20;;;;;;;3.70;3.20;;;23.00;47.00;;;;;;5015883;28;20499;-79
2021/06/02 02:10:16;;;;;;;3.73;3.40;;;23.00;47.00;;;;;;5033103;28;20403;-80
2021/06/02 02:13:16;;;;;;;3.50;3.20;;;23.00;47.00;;;;;;5033028;28;20415;-79
2021/06/02 02:16:12;;;;;;;3.33;3.03;;;23.00;47.00;;;;;;5035111;28;20474;-79
2021/06/02 02:19:15;;;;;;;3.83;2.90;;;23.00;47.00;;;;;;5017055;28;20419;-80
2021/06/02 02:22:17;;;;;;;3.30;3.00;;;23.00;47.00;;;;;;5033474;28;20415;-79
2021/06/02 02:24:49;;;;;;;4.10;3.70;;;23.00;47.00;;;;;;5034903;28;20450;-80
2021/06/02 02:27:36;;;;;;;3.20;2.90;;;23.00;47.10;;;;;;5037301;28;20414;-79
2021/06/02 02:30:08;;;;;;;3.67;3.30;;;23.00;47.00;;;;;;5037209;28;20399;-80
2021/06/02 02:32:43;;;;;;;3.47;3.17;;;23.00;47.00;;;;;;5020910;28;20411;-80
2021/06/02 02:35:37;;;;;;;3.03;2.73;;;23.00;47.00;;;;;;5036787;28;20418;-79
2021/06/02 02:39:00;;;;;;;3.40;3.10;;;23.00;46.90;;;;;;5036287;28;20418;-79
2021/06/02 02:41:41;;;;;;;4.00;3.60;;;23.00;46.90;;;;;;4938456;29;20435;-80
2021/06/02 02:44:32;;;;;;;3.67;3.20;;;23.00;47.00;;;;;;4938735;29;20426;-80
2021/06/02 02:47:26;;;;;;;3.57;3.27;;;23.00;47.00;;;;;;4938065;29;20487;-78
2021/06/02 02:49:58;;;;;;;3.30;3.00;;;23.00;47.00;;;;;;4936371;29;20401;-80
2021/06/02 02:53:02;;;;;;;4.07;3.40;;;23.00;47.00;;;;;;4913611;29;20893;-79
2021/06/02 02:55:36;;;;;;;2.83;2.60;;;23.00;46.90;;;;;;4915925;29;20474;-79
2021/06/02 02:58:20;;;;;;;3.30;3.00;;;23.00;47.00;;;;;;4935866;29;20408;-79
2021/06/02 03:00:56;;;;;;;3.60;3.30;;;23.00;46.90;;;;;;4935951;29;20412;-79
2021/06/02 03:03:34;;;;;;;3.40;3.10;;;23.00;46.90;;;;;;4936618;29;20427;-79
2021/06/02 03:06:15;;;;;;;4.17;3.87;;;23.00;46.90;;;;;;4921438;29;20463;-79
2021/06/02 03:09:18;;;;;;;4.20;3.07;;;23.00;46.90;;;;;;4937842;29;20538;-79
2021/06/02 03:11:45;;;;;;;4.13;3.27;;;22.90;46.80;;;;;;4959461;28;20492;-79
2021/06/02 03:14:20;;;;;;;3.60;3.00;;;22.90;46.80;;;;;;5032948;28;20423;-79
2021/06/02 03:17:21;;;;;;;3.30;3.00;;;23.00;46.80;;;;;;5037087;28;20458;-78
2021/06/02 03:20:05;;;;;;;4.03;3.07;;;23.00;46.80;;;;;;5014016;28;20431;-79
2021/06/02 03:22:51;;;;;;;3.77;3.23;;;22.90;46.70;;;;;;5019556;28;20415;-79
2021/06/02 03:25:25;;;;;;;2.90;2.70;;;23.00;46.80;;;;;;5036333;28;20402;-79
2021/06/02 03:28:12;;;;;;;2.80;2.60;;;22.90;46.70;;;;;;5034936;28;20455;-79
2021/06/02 03:31:05;;;;;;;3.43;3.13;;;22.90;46.70;;;;;;5036230;28;20392;-79
2021/06/02 03:34:00;;;;;;;3.83;3.53;;;23.00;46.80;;;;;;5034584;28;20396;-78
2021/06/02 03:36:29;;;;;;;3.87;3.50;;;22.90;46.70;;;;;;5033141;28;20530;-79
2021/06/02 03:39:16;;;;;;;3.53;3.20;;;22.90;46.70;;;;;;5032092;28;20431;-79
2021/06/02 03:42:19;;;;;;;4.40;4.00;;;22.90;46.60;;;;;;5029841;28;20454;-79
2021/06/02 03:45:00;;;;;;;3.57;3.27;;;22.90;46.60;;;;;;5011766;28;20511;-79
2021/06/02 03:47:44;;;;;;;4.37;4.07;;;22.90;46.60;;;;;;5012594;28;20502;-79
2021/06/02 03:50:35;;;;;;;3.43;3.13;;;22.90;46.60;;;;;;5013688;28;20408;-79
2021/06/02 03:53:28;;;;;;;3.73;2.97;;;22.90;46.60;;;;;;5017218;28;20471;-79
2021/06/02 03:55:53;;;;;;;3.70;3.13;;;22.90;47.20;;;;;;5034686;28;20459;-79
2021/06/02 03:58:54;;;;;;;4.03;3.63;;;22.90;46.60;;;;;;5035283;28;20496;-79
2021/06/02 04:01:30;;;;;;;3.27;2.97;;;22.90;46.60;;;;;;5034478;28;20176;-79
2021/06/02 04:04:17;;;;;;;4.63;3.60;;;22.90;46.60;;;;;;5033977;28;20503;-79
2021/06/02 04:07:08;;;;;;;3.63;3.33;;;22.90;46.60;;;;;;5033855;28;20424;-79
2021/06/02 04:10:00;;;;;;;3.57;3.27;;;22.90;46.60;;;;;;5035279;28;20760;-79
2021/06/02 04:12:49;;;;;;;3.77;3.47;;;22.90;46.60;;;;;;5034457;28;20488;-79
2021/06/02 04:15:16;;;;;;;3.73;3.43;;;22.90;46.50;;;;;;5034717;28;20478;-79
2021/06/02 04:17:49;;;;;;;3.80;3.50;;;22.80;46.50;;;;;;5035518;28;20446;-79
2021/06/02 04:20:16;;;;;;;3.50;3.20;;;22.90;46.50;;;;;;5035657;28;20418;-79
2021/06/02 04:22:46;;;;;;;3.93;3.60;;;22.90;46.50;;;;;;5035380;28;20430;-79
2021/06/02 04:25:14;;;;;;;3.00;2.80;;;22.90;46.50;;;;;;5034916;28;20491;-79
2021/06/02 04:27:40;;;;;;;3.80;3.20;;;22.90;46.40;;;;;;5035374;28;20427;-78
2021/06/02 04:31:01;;;;;;;3.90;3.50;;;22.90;46.40;;;;;;5035665;28;20402;-80
2021/06/02 04:33:32;;;;;;;3.40;3.10;;;22.90;46.40;;;;;;5035931;28;20151;-80
2021/06/02 04:35:59;;;;;;;4.03;3.63;;;22.90;46.40;;;;;;5033543;28;20459;-80
2021/06/02 04:38:25;;;;;;;3.40;3.07;;;22.90;47.10;;;;;;5033726;28;20446;-80
2021/06/02 04:40:53;;;;;;;3.60;3.23;;;22.90;46.40;;;;;;5016361;28;20415;-81
2021/06/02 04:43:24;;;;;;;3.40;3.10;;;22.90;46.30;;;;;;5034215;28;20411;-81
2021/06/02 04:45:55;;;;;;;3.40;3.10;;;22.90;46.40;;;;;;5033037;28;20482;-81
2021/06/02 04:48:21;;;;;;;5.20;3.50;;;22.90;46.30;;;;;;5016632;28;20518;-80
2021/06/02 04:51:15;;;;;;;3.70;3.40;;;22.90;46.30;;;;;;5032937;28;20450;-81
2021/06/02 04:54:12;;;;;;;3.83;3.43;;;23.00;46.40;;;;;;5033096;28;20564;-80
2021/06/02 04:57:21;;;;;;;3.00;2.70;;;22.90;46.20;;;;;;5033141;28;20451;-81
2021/06/02 05:00:24;;;;;;;3.73;3.43;;;23.00;46.30;;;;;;5032788;28;20507;-80
2021/06/02 05:03:13;;;;;;;3.10;2.80;;;23.00;46.30;;;;;;5033383;28;20475;-80
2021/06/02 05:06:10;;;;;;;3.03;2.70;;;23.00;46.30;;;;;;5033143;28;20423;-81
2021/06/02 05:09:06;;;;;;;3.33;3.03;;;23.00;46.30;;;;;;5033452;28;20402;-80
2021/06/02 05:11:53;;;;;;;3.37;3.07;;;23.00;46.30;;;;;;5033069;28;20447;-80
2021/06/02 05:14:37;;;;;;;3.50;3.20;;;23.00;46.20;;;;;;5034250;28;20450;-80
2021/06/02 05:17:28;;;;;;;3.50;3.20;;;23.00;46.30;;;;;;5033206;28;20481;-80
2021/06/02 05:20:39;;;;;;;3.70;3.40;;;23.00;46.30;;;;;;5033276;28;20407;-80
2021/06/02 05:23:36;;;;;;;3.00;2.80;;;23.00;46.20;;;;;;5033188;28;20798;-80
2021/06/02 05:26:20;;;;;;;3.53;3.23;;;23.00;46.30;;;;;;5032495;28;20519;-80
2021/06/02 05:29:08;;;;;;;3.50;3.20;;;23.00;46.30;;;;;;5033813;28;20414;-80
2021/06/02 05:32:13;;;;;;;4.43;2.80;;;23.00;46.30;;;;;;5032343;28;20399;-80
2021/06/02 05:35:08;;;;;;;4.10;3.60;;;23.10;46.20;;;;;;5033414;28;20403;-79
2021/06/02 05:38:14;;;;;;;3.73;3.10;;;23.10;46.20;;;;;;5033979;28;20400;-80
2021/06/02 05:40:59;;;;;;;4.03;3.53;;;23.10;46.20;;;;;;5033773;28;20399;-80
2021/06/02 05:43:46;;;;;;;4.53;3.63;;;23.10;46.20;;;;;;5033295;28;20395;-80
2021/06/02 05:46:49;;;;;;;5.10;3.23;;;23.10;46.20;;;;;;5033016;28;20387;-80
2021/06/02 05:49:33;;;;;;;4.77;2.97;;;23.10;46.20;;;;;;5033777;28;20407;-80
2021/06/02 05:52:33;;;;;;;4.50;2.80;;;23.10;46.20;;;;;;5033311;28;20398;-82
2021/06/02 05:54:58;;;;;;;3.70;3.40;;;23.10;46.20;;;;;;5032608;28;20404;-80
2021/06/02 05:58:02;;;;;;;5.20;3.10;;;23.10;46.30;;;;;;5031704;28;20416;-80
2021/06/02 06:00:54;;;;;;;3.70;3.40;;;23.20;46.30;;;;;;5035319;28;20160;-79
2021/06/02 06:03:42;;;;;;;3.47;2.80;;;23.20;46.40;;;;;;5036130;28;20391;-79
2021/06/02 06:06:30;;;;;;;3.47;3.00;;;23.20;46.30;;;;;;5037512;28;20411;-81
2021/06/02 06:09:33;;;;;;;3.67;3.30;;;23.20;46.40;;;;;;5036872;28;20419;-80
2021/06/02 06:12:33;;;;;;;3.90;3.30;;;23.20;46.40;;;;;;5036190;28;20761;-80
2021/06/02 06:15:23;;;;;;;3.10;2.80;;;23.20;46.40;;;;;;4938180;29;20551;-80
2021/06/02 06:18:15;;;;;;;3.97;3.07;;;23.20;46.40;;;;;;4938862;29;20404;-80
2021/06/02 06:21:02;;;;;;;3.83;3.07;;;23.20;46.40;;;;;;4937825;29;20424;-80
2021/06/02 06:23:52;;;;;;;3.50;2.93;;;23.30;46.50;;;;;;4937662;29;20479;-80
2021/06/02 06:26:31;;;;;;;2.73;2.53;;;23.30;46.50;;;;;;4938580;29;20427;-80
2021/06/02 06:29:03;;;;;;;7.57;3.40;;;23.30;46.50;;;;;;4937675;29;20411;-79
2021/06/02 06:31:32;;;;;;;3.97;3.00;;;23.30;46.50;;;;;;4937907;29;20426;-78
2021/06/02 06:34:05;;;;;;;3.37;3.00;;;23.30;46.50;;;;;;4937609;29;20430;-79
2021/06/02 06:36:34;;;;;;;2.93;2.53;;;23.30;46.50;;;;;;4937948;29;20535;-80
2021/06/02 06:39:36;;;;;;;3.50;3.20;;;23.30;46.40;;;;;;4927907;29;20982;-80
2021/06/02 06:42:03;;;;;;;3.40;2.87;;;23.40;46.50;;;;;;4956779;29;20414;-80
2021/06/02 06:44:33;;;;;;;3.13;2.53;;;23.40;46.50;;;;;;4956141;29;20415;-81
2021/06/02 06:47:01;;;;;;;3.87;3.20;;;23.40;46.50;;;;;;4925256;29;20608;-81
2021/06/02 06:49:31;;;;;;;3.57;2.83;;;23.40;46.50;;;;;;4950827;29;20427;-81
2021/06/02 06:51:59;;;;;;;5.20;3.60;;;23.40;46.60;;;;;;5002909;28;20408;-80
2021/06/02 06:54:25;;;;;;;5.37;3.13;;;23.40;46.50;;;;;;5051919;28;20439;-81
2021/06/02 06:56:52;;;;;;;3.87;3.37;;;23.40;46.50;;;;;;5036443;28;20780;-81
2021/06/02 06:59:19;;;;;;;3.03;2.77;;;23.50;46.60;;;;;;5016968;28;20447;-80
2021/06/02 07:01:48;;;;;;;5.50;2.80;;;23.40;46.50;;;;;;5017506;28;20519;-81
2021/06/02 07:04:15;;;;;;;4.40;3.00;;;23.40;46.60;;;;;;5016613;28;20489;-84
2021/06/02 07:06:44;;;;;;;3.63;2.90;;;23.50;46.70;;;;;;5015921;28;20490;-80
2021/06/02 07:09:13;;;;;;;3.30;2.90;;;23.50;46.70;;;;;;5015719;28;20450;-81
2021/06/02 07:11:40;;;;;;;3.30;2.60;;;23.50;47.30;;;;;;5015890;28;20427;-80
2021/06/02 07:14:12;;;;;;;3.13;2.83;;;23.50;46.80;;;;;;5032258;28;20404;-80
2021/06/02 07:16:40;;;;;;;3.47;2.97;;;23.50;46.80;;;;;;5015026;28;20530;-80
2021/06/02 07:19:07;;;;;;;3.30;2.50;;;23.50;46.80;;;;;;5031377;28;20408;-80
2021/06/02 07:21:40;;;;;;;2.97;2.67;;;23.50;46.80;;;;;;5014817;28;20417;-80
2021/06/02 07:24:07;;;;;;;3.43;3.10;;;23.60;46.90;;;;;;5031551;28;20837;-80
2021/06/02 07:29:55;;;;;;;4.77;2.70;;;23.60;46.90;;;;;;5032050;28;20411;-80
2021/06/02 07:32:22;;;;;;;4.63;2.57;;;23.60;46.90;;;;;;5029867;28;20423;-80
2021/06/02 07:34:48;;;;;;;2.80;2.50;;;23.60;46.90;;;;;;5031394;28;20509;-80
2021/06/02 07:37:14;;;;;;;5.17;2.73;;;23.60;47.00;;;;;;5031249;28;20486;-80
2021/06/02 07:39:40;;;;;;;4.40;2.80;;;23.60;47.00;;;;;;5030253;28;20211;-80
2021/06/02 07:42:06;;;;;;;2.50;2.30;;;23.60;47.00;;;;;;5047534;28;20423;-80
2021/06/02 07:44:33;;;;;;;3.63;3.10;;;23.70;47.00;;;;;;5014530;28;20184;-80
2021/06/02 07:46:58;;;;;;;3.97;2.80;;;23.60;47.00;;;;;;5030852;28;20446;-80
2021/06/02 07:49:25;;;;;;;2.50;2.30;;;23.70;47.00;;;;;;5032059;28;20407;-80
2021/06/02 07:51:54;;;;;;;2.93;2.53;;;23.70;47.00;;;;;;5014679;28;20640;-80
2021/06/02 07:54:21;;;;;;;3.03;2.73;;;23.70;47.00;;;;;;5046593;28;20420;-80
2021/06/02 07:56:47;;;;;;;2.80;2.53;;;23.70;47.00;;;;;;5031006;28;20454;-80
2021/06/02 07:59:13;;;;;;;3.10;2.80;;;23.70;47.10;;;;;;5030547;28;20495;-81
2021/06/02 08:01:39;;;;;;;3.00;2.63;;;23.70;47.00;;;;;;5032058;28;20695;-80
2021/06/02 08:04:05;;;;;;;2.83;2.47;;;23.70;47.00;;;;;;5048120;28;20429;-81
2021/06/02 08:06:37;;;;;;;2.73;2.43;;;23.70;47.60;;;;;;5050657;28;20175;-81
2021/06/02 08:09:05;;;;;;;3.50;2.73;;;23.80;47.10;;;;;;5033546;28;20411;-80
2021/06/02 08:11:47;;;;;;;3.30;2.17;;;23.80;47.20;;;;;;5035221;28;20414;-80
2021/06/02 08:14:15;;;;;;;2.83;2.53;;;23.70;47.00;;;;;;5050632;28;20561;-81
2021/06/02 08:16:41;;;;;;;2.97;2.50;;;23.80;47.10;;;;;;5050869;28;20450;-80
2021/06/02 08:19:09;;;;;;;2.57;1.97;;;23.80;47.20;;;;;;5035223;28;20411;-81
2021/06/02 08:21:39;;;;;;;2.80;1.97;;;23.80;47.20;;;;;;5033784;28;20415;-81
2021/06/02 08:24:06;;;;;;;3.10;2.90;;;23.80;47.20;;;;;;5035193;28;20414;-81
2021/06/02 08:26:40;;;;;;;3.03;2.50;;;23.80;47.20;;;;;;5035568;28;20448;-80
2021/06/02 08:29:06;;;;;;;2.50;2.23;;;23.80;47.10;;;;;;5035178;28;20434;-80
2021/06/02 08:31:32;;;;;;;3.10;2.10;;;23.80;47.20;;;;;;5035321;28;20418;-80
2021/06/02 08:33:59;;;;;;;2.80;2.40;;;23.90;47.20;;;;;;5033962;28;20176;-81
2021/06/02 08:36:27;;;;;;;1.90;1.80;;;23.80;47.20;;;;;;5030398;28;20465;-80
2021/06/02 08:38:52;;;;;;;3.03;2.30;;;23.90;47.30;;;;;;5046731;28;20406;-80
2021/06/02 08:41:19;;;;;;;2.50;2.30;;;23.90;47.20;;;;;;5013383;28;20781;-80
2021/06/02 08:43:47;;;;;;;3.17;2.80;;;23.90;47.30;;;;;;5029917;28;20274;-79
2021/06/02 08:46:15;;;;;;;2.40;2.20;;;23.90;47.20;;;;;;5029720;28;20422;-80
2021/06/02 08:48:48;;;;;;;4.30;2.60;;;23.90;47.30;;;;;;5045179;28;20801;-81
2021/06/02 08:51:21;;;;;;;2.93;2.70;;;23.90;47.30;;;;;;5048564;28;20475;-82
2021/06/02 08:53:48;;;;;;;2.20;2.00;;;23.90;47.30;;;;;;5049866;28;20409;-81
2021/06/02 08:56:15;;;;;;;2.90;2.10;;;23.90;47.30;;;;;;5049276;28;20457;-80
2021/06/02 08:58:41;;;;;;;2.70;2.00;;;23.90;47.30;;;;;;5048807;28;20430;-80
2021/06/02 09:01:07;;;;;;;2.50;1.90;;;23.90;47.30;;;;;;5067331;28;20811;-81
2021/06/02 09:03:33;;;;;;;2.60;2.40;;;23.90;47.30;;;;;;5048456;28;20417;-80
2021/06/02 09:06:06;;;;;;;2.33;2.10;;;23.90;47.30;;;;;;5066839;28;20413;-81
2021/06/02 09:08:33;;;;;;;2.80;2.20;;;24.00;47.40;;;;;;5048621;28;20433;-79
2021/06/02 09:11:14;;;;;;;2.53;2.33;;;24.00;47.40;;;;;;5049015;28;20508;-80
2021/06/02 09:13:39;;;;;;;4.10;2.20;;;24.00;47.40;;;;;;5048676;28;20444;-79
2021/06/02 09:16:17;;;;;;;2.87;2.40;;;24.00;47.40;;;;;;5049193;28;20461;-80
2021/06/02 09:18:48;;;;;;;2.20;2.00;;;24.00;47.40;;;;;;5066816;28;20158;-81
2021/06/02 09:21:14;;;;;;;2.20;2.00;;;24.00;47.40;;;;;;5066773;28;20421;-80
2021/06/02 09:23:45;;;;;;;3.00;2.13;;;24.00;47.40;;;;;;5049193;28;20402;-81
2021/06/02 09:26:31;;;;;;;2.30;2.10;;;24.00;47.40;;;;;;5048779;28;20413;-81
2021/06/02 09:29:10;;;;;;;2.60;2.00;;;24.00;47.40;;;;;;4989359;28;20424;-80
2021/06/02 09:31:40;;;;;;;2.00;1.80;;;24.00;47.40;;;;;;4989393;28;20427;-81
2021/06/02 09:34:06;;;;;;;2.30;2.10;;;24.00;47.40;;;;;;4988885;28;20472;-80
2021/06/02 09:36:39;;;;;;;2.00;1.80;;;24.00;47.40;;;;;;4988507;28;20460;-80
2021/06/02 09:39:10;;;;;;;2.80;1.70;;;24.00;47.40;;;;;;4989167;28;20177;-80
2021/06/02 09:41:47;;;;;;;3.20;2.37;;;24.00;47.40;;;;;;4989490;28;20423;-80
2021/06/02 09:44:24;;;;;;;2.90;1.80;;;24.00;47.40;;;;;;4989617;28;20416;-81
2021/06/02 09:47:12;;;;;;;2.33;2.13;;;24.00;47.40;;;;;;5006875;28;20434;-80
2021/06/02 09:49:49;;;;;;;2.40;2.20;;;24.10;47.50;;;;;;4989697;28;20428;-80
2021/06/02 09:52:48;;;;;;;2.33;1.90;;;24.10;47.50;;;;;;4958235;28;20474;-82
2021/06/02 09:55:38;;;;;;;2.00;1.83;;;24.10;47.50;;;;;;4953246;28;20433;-83
2021/06/02 09:58:07;;;;;;;2.77;2.03;;;24.00;47.40;;;;;;4970028;29;20394;-82
2021/06/02 10:01:20;;;;;;;2.50;2.30;;;24.00;47.30;;;;;;4954241;28;20438;-83
2021/06/02 10:04:02;;;;;;;;;;;;;;;;;;;;;
2021/06/02 10:07:14;;;;;;;1.70;1.60;;;24.00;47.30;;;;;;4996817;28;20620;-82
2021/06/02 10:09:43;;;;;;;2.87;1.77;;;24.00;47.30;;;;;;4949196;29;20423;-83
2021/06/02 10:16:02;;;;;;;3.40;2.30;;;24.10;47.50;;;;;;5030838;28;21016;-83
2021/06/02 10:18:33;;;;;;;4.63;2.37;;;24.00;47.40;;;;;;5016714;28;20407;-83
2021/06/02 10:28:39;;;;;;;2.10;1.80;;;24.10;47.40;;;;;;4988598;28;20417;-81
2021/06/02 10:31:10;;;;;;;3.07;2.13;;;24.10;47.40;;;;;;4974335;28;20451;-82
2021/06/02 10:33:53;;;;;;;2.97;1.87;;;24.00;47.30;;;;;;4991082;28;20421;-82
2021/06/02 10:36:19;;;;;;;3.30;2.00;;;24.00;47.30;;;;;;4961362;28;20468;-82
2021/06/02 10:38:51;;;;;;;2.73;2.20;;;24.10;47.30;;;;;;4955756;29;20422;-82
2021/06/02 10:41:54;;;;;;;2.33;1.93;;;24.10;47.30;;;;;;4956527;29;20525;-82
2021/06/02 10:44:49;;;;;;;;;;;;;;;;;;;;;
2021/06/02 10:47:32;;;;;;;2.40;2.20;;;24.10;47.20;;;;;;4975050;29;20440;-82
2021/06/02 10:49:59;;;;;;;3.50;2.30;;;24.10;47.20;;;;;;4959323;29;20421;-82
2021/06/02 10:52:42;;;;;;;3.00;2.10;;;24.10;47.10;;;;;;4959099;29;20453;-82
2021/06/02 10:55:37;;;;;;;1.87;1.60;;;24.10;47.10;;;;;;4959414;29;20525;-82
2021/06/02 10:58:36;;;;;;;2.70;1.63;;;24.10;47.10;;;;;;4975652;28;20479;-81
2021/06/02 11:01:13;;;;;;;2.17;1.97;;;24.10;47.00;;;;;;5013262;28;20504;-81
2021/06/02 11:03:44;;;;;;;2.30;2.00;;;24.00;47.00;;;;;;5013530;28;20514;-81
2021/06/02 11:06:42;;;;;;;2.67;2.23;;;24.10;47.10;;;;;;5012945;28;20419;-82
2021/06/02 11:09:12;;;;;;;2.43;1.90;;;24.10;47.00;;;;;;4951192;29;20410;-81
2021/06/02 11:11:43;;;;;;;2.10;1.90;;;24.10;47.00;;;;;;4951392;29;20415;-81
2021/06/02 11:14:21;;;;;;;2.10;2.00;;;24.10;47.00;;;;;;4950892;29;20925;-81
2021/06/02 11:16:52;;;;;;;3.17;2.00;;;24.10;46.90;;;;;;4936946;29;20546;-81
2021/06/02 11:19:21;;;;;;;2.30;1.90;;;24.10;46.90;;;;;;4954585;29;20481;-81
2021/06/02 11:21:55;;;;;;;2.50;1.90;;;24.00;46.80;;;;;;4952929;29;20423;-81
2021/06/02 11:24:42;;;;;;;4.13;2.07;;;24.10;46.90;;;;;;4951606;29;20422;-81
2021/06/02 11:27:11;;;;;;;3.17;2.00;;;24.10;46.90;;;;;;4953945;29;20411;-81
2021/06/02 11:30:05;;;;;;;6.80;2.77;;;24.10;46.90;;;;;;4938623;29;20430;-81
2021/06/02 11:32:32;;;;;;;2.50;2.00;;;24.10;46.90;;;;;;4933422;29;20418;-81
2021/06/02 11:35:17;;;;;;;2.23;2.03;;;24.10;46.90;;;;;;4953238;29;20455;-82
2021/06/02 11:37:43;;;;;;;1.80;1.70;;;24.10;46.90;;;;;;4957027;29;20458;-84
2021/06/02 11:40:11;;;;;;;2.10;1.87;;;24.10;46.80;;;;;;4954010;29;20415;-84
2021/06/02 11:43:12;;;;;;;2.27;2.07;;;24.10;46.80;;;;;;4953752;29;20430;-84
2021/06/02 11:45:44;;;;;;;2.57;2.37;;;24.10;46.80;;;;;;4923097;29;20418;-83
2021/06/02 11:48:20;;;;;;;3.37;2.00;;;24.10;46.80;;;;;;4958937;29;20425;-83
2021/06/02 11:50:46;;;;;;;2.50;2.30;;;24.10;46.80;;;;;;4959276;29;20421;-83
2021/06/02 11:53:12;;;;;;;2.83;2.10;;;24.10;46.80;;;;;;4958152;29;20441;-83
2021/06/02 11:55:39;;;;;;;2.20;2.00;;;24.10;46.70;;;;;;4952095;29;20747;-83
2021/06/02 11:58:05;;;;;;;2.80;2.00;;;24.10;46.80;;;;;;4954171;29;20429;-83
2021/06/02 12:00:38;;;;;;;1.93;1.73;;;24.10;46.70;;;;;;4953987;29;20453;-84
2021/06/02 12:03:14;;;;;;;2.13;1.93;;;24.10;46.70;;;;;;4968921;29;20410;-84
2021/06/02 12:05:46;;;;;;;1.70;1.60;;;24.10;46.70;;;;;;4953751;29;20414;-84
2021/06/02 12:08:16;;;;;;;2.07;1.73;;;24.10;46.70;;;;;;4936994;29;21065;-84
2021/06/02 12:13:56;;;;;;;2.30;2.03;;;24.10;46.80;;;;;;4943488;29;20442;-84
2021/06/02 12:16:28;;;;;;;2.97;2.37;;;24.10;46.90;;;;;;4933653;29;20518;-84
2021/06/02 12:19:00;;;;;;;1.57;1.47;;;24.10;46.90;;;;;;4950119;29;20431;-84
2021/06/02 12:21:32;;;;;;;1.87;1.40;;;24.10;46.90;;;;;;4945064;28;20423;-87
2021/06/02 12:24:05;;;;;;;2.30;2.10;;;24.10;46.90;;;;;;5029068;28;20473;-84
2021/06/02 12:26:43;;;;;;;2.43;1.80;;;24.10;46.90;;;;;;5025696;28;20482;-83
2021/06/02 12:29:11;;;;;;;2.83;1.70;;;24.10;46.90;;;;;;5026876;28;20719;-84
2021/06/02 12:31:55;;;;;;;2.93;2.03;;;24.10;46.90;;;;;;5027821;28;20419;-84
2021/06/02 12:34:30;;;;;;;2.87;2.00;;;24.10;46.80;;;;;;5026751;28;20419;-84
2021/06/02 12:36:57;;;;;;;2.23;2.03;;;24.10;46.90;;;;;;5028212;28;20457;-84
2021/06/02 12:39:33;;;;;;;3.07;2.07;;;24.10;46.80;;;;;;5028173;28;20432;-84
2021/06/02 12:42:05;;;;;;;2.07;1.87;;;24.10;46.80;;;;;;5027405;28;20406;-84
2021/06/02 12:44:35;;;;;;;2.57;1.97;;;24.10;46.80;;;;;;5027457;28;20996;-84
2021/06/02 12:47:10;;;;;;;2.00;1.80;;;24.10;46.80;;;;;;5043226;28;20407;-84
2021/06/02 12:49:52;;;;;;;2.00;1.80;;;24.10;46.80;;;;;;5043639;28;20425;-84
2021/06/02 12:52:20;;;;;;;2.90;2.00;;;24.10;46.80;;;;;;5027569;28;20470;-84
2021/06/02 12:54:53;;;;;;;3.10;1.70;;;24.10;46.80;;;;;;5045237;28;20402;-84
2021/06/02 12:57:29;;;;;;;2.37;1.77;;;24.10;46.80;;;;;;5042751;28;20489;-84
2021/06/02 13:00:03;;;;;;;1.87;1.70;;;24.10;46.70;;;;;;4992294;28;1460889;-84
2021/06/02 13:02:33;;;;;;;2.07;1.87;;;24.10;46.80;;;;;;5044149;28;20183;-85
2021/06/02 13:05:04;;;;;;;1.70;1.60;;;24.10;46.80;;;;;;5046260;28;20412;-85
2021/06/02 13:07:42;;;;;;;4.27;2.27;;;24.10;46.80;;;;;;5044060;28;20435;-85
2021/06/02 13:10:19;;;;;;;3.10;2.33;;;24.10;46.80;;;;;;5045530;28;20402;-85
2021/06/02 13:13:04;;;;;;;;;;;;;;;;;;;;;
2021/06/02 13:15:32;;;;;;;2.97;2.53;;;24.10;46.90;;;;;;5045046;28;20581;-85
2021/06/02 13:17:59;;;;;;;2.10;1.50;;;24.10;46.90;;;;;;5043370;28;20490;-86
2021/06/02 13:20:43;;;;;;;2.93;1.83;;;24.10;46.80;;;;;;5051310;28;20414;-83
2021/06/02 13:23:22;;;;;;;1.80;1.70;;;24.10;46.80;;;;;;5052439;28;20427;-82
2021/06/02 13:26:07;;;;;;;1.70;1.60;;;24.00;46.80;;;;;;5051490;28;20414;-82
2021/06/02 13:28:52;;;;;;;2.13;1.87;;;24.10;46.90;;;;;;5035444;28;20406;-83
2021/06/02 13:31:42;;;;;;;1.83;1.73;;;24.00;46.80;;;;;;5052006;28;20418;-82
2021/06/02 13:34:13;;;;;;;1.90;1.80;;;24.00;46.80;;;;;;5052785;28;20424;-83
2021/06/02 13:37:19;;;;;;;2.00;1.80;;;24.00;46.90;;;;;;5052444;28;20577;-82
2021/06/02 13:40:17;;;;;;;2.37;2.00;;;24.00;46.90;;;;;;5035253;28;20477;-82
2021/06/02 13:43:00;;;;;;;2.10;1.90;;;24.00;46.90;;;;;;5053562;28;20391;-82
2021/06/02 13:46:01;;;;;;;1.83;1.67;;;24.00;46.90;;;;;;5035379;28;20444;-83
2021/06/02 13:48:49;;;;;;;2.13;1.83;;;23.90;46.90;;;;;;5035848;28;20425;-82
2021/06/02 13:51:19;;;;;;;2.13;1.90;;;23.90;46.90;;;;;;5052334;28;20423;-82
2021/06/02 13:54:21;;;;;;;2.30;2.10;;;23.90;46.90;;;;;;5035578;28;20426;-81
2021/06/02 13:57:11;;;;;;;2.30;2.10;;;23.90;46.90;;;;;;5051453;28;20484;-82
2021/06/02 13:59:58;;;;;;;1.80;1.70;;;23.90;47.00;;;;;;5051655;28;20426;-82
2021/06/02 14:02:44;;;;;;;2.20;1.80;;;23.90;47.00;;;;;;5053343;28;20417;-83
2021/06/02 14:05:15;;;;;;;3.83;1.80;;;23.80;47.00;;;;;;5032072;28;20418;-83